createdAt,value
2023-01-06T00:01:24.052Z,101863.91
2023-01-06T00:03:53.529Z,101856.09
2023-01-06T00:06:27.684Z,101862.31
2023-01-06T00:08:59.192Z,101859.16
2023-01-06T00:11:28.025Z,101857.56
2023-01-06T00:13:56.945Z,101840.38
2023-01-06T00:16:25.598Z,101839.88
2023-01-06T00:18:57.021Z,101836.09
2023-01-06T00:21:25.967Z,101843.75
2023-01-06T00:23:55.107Z,101838.34
2023-01-06T00:26:24.915Z,101839.88
2023-01-06T00:28:55.208Z,101837.19
2023-01-06T00:31:24.131Z,101823.63
2023-01-06T00:33:52.541Z,101822.53
2023-01-06T00:36:21.761Z,101813.59
2023-01-06T00:38:51.171Z,101825.22
2023-01-06T00:41:37.280Z,101814.38
2023-01-06T00:44:07.945Z,101826.34
2023-01-06T00:46:36.385Z,101817.91
2023-01-06T00:49:07.345Z,101808.97
2023-01-06T00:51:38.872Z,101812.78
2023-01-06T00:54:08.691Z,101812.78
2023-01-06T00:56:38.783Z,101810.88
2023-01-06T00:59:09.195Z,101809.75
2023-01-06T01:01:38.843Z,101808.97
2023-01-06T01:04:08.349Z,101812.13
2023-01-06T01:06:37.359Z,101808.97
2023-01-06T01:09:07.501Z,101820.59
2023-01-06T01:11:53.630Z,101817.09
2023-01-06T01:14:23.607Z,101825.22
2023-01-06T01:16:52.389Z,101823.31
2023-01-06T01:19:21.418Z,101829.53
2023-01-06T01:21:49.680Z,101824.44
2023-01-06T01:24:18.005Z,101822.53
2023-01-06T01:26:46.573Z,101827.94
2023-01-06T01:29:17.151Z,101826.81
2023-01-06T01:31:47.447Z,101817.09
2023-01-06T01:34:17.815Z,101822.53
2023-01-06T01:36:48.683Z,101820.47
2023-01-06T01:39:19.894Z,101817.78
2023-01-06T01:41:49.186Z,101823.19
2023-01-06T01:45:04.327Z,101813.47
2023-01-06T01:47:42.681Z,101816.19
2023-01-06T01:50:29.905Z,101817.31
2023-01-06T01:53:05.801Z,101811.91
2023-01-06T01:55:35.616Z,101806.47
2023-01-06T01:58:08.942Z,101813.81
2023-01-06T02:00:37.979Z,101808.69
2023-01-06T02:03:08.424Z,101809.06
2023-01-06T02:05:43.725Z,101803.66
2023-01-06T02:08:22.536Z,101801.69
2023-01-06T02:10:50.861Z,101801.69
2023-01-06T02:13:19.165Z,101798.66
2023-01-06T02:15:47.477Z,101796.28
2023-01-06T02:18:49.561Z,101789.72
2023-01-06T02:21:43.558Z,101793.25
2023-01-06T02:25:11.151Z,101784.28
2023-01-06T02:28:19.881Z,101780.00
2023-01-06T02:31:50.203Z,101773.03
2023-01-06T02:34:32.940Z,101763.31
2023-01-06T02:37:12.652Z,101754.72
2023-01-06T02:39:51.636Z,101756.31
2023-01-06T02:42:29.932Z,101758.69
2023-01-06T02:45:09.880Z,101762.19
2023-01-06T02:47:52.090Z,101741.16
2023-01-06T02:50:27.865Z,101737.66
2023-01-06T02:53:07.672Z,101724.09
2023-01-06T02:55:41.087Z,101737.66
2023-01-06T02:58:18.167Z,101720.28
2023-01-06T03:00:53.071Z,101716.75
2023-01-06T03:03:24.699Z,101716.28
2023-01-06T03:05:59.816Z,101707.72
2023-01-06T03:08:30.260Z,101706.16
2023-01-06T03:11:02.054Z,101698.44
2023-01-06T03:13:40.100Z,101696.50
2023-01-06T03:16:09.282Z,101697.31
2023-01-06T03:18:38.503Z,101699.22
2023-01-06T03:21:15.057Z,101709.28
2023-01-06T03:23:44.282Z,101710.06
2023-01-06T03:26:12.946Z,101704.66
2023-01-06T03:28:41.175Z,101699.22
2023-01-06T03:31:17.927Z,101687.97
2023-01-06T03:33:58.518Z,101685.25
2023-01-06T03:36:36.392Z,101685.25
2023-01-06T03:39:10.182Z,101691.47
2023-01-06T03:42:00.200Z,101681.38
2023-01-06T03:44:36.581Z,101675.19
2023-01-06T03:47:13.716Z,101682.16
2023-01-06T03:49:52.819Z,101697.31
2023-01-06T03:52:29.952Z,101703.22
2023-01-06T03:55:06.353Z,101704.34
2023-01-06T03:57:37.908Z,101693.16
2023-01-06T04:00:12.019Z,101684.69
2023-01-06T04:02:42.244Z,101686.28
2023-01-06T04:05:14.272Z,101673.13
2023-01-06T04:07:44.886Z,101684.78
2023-01-06T04:10:15.084Z,101680.16
2023-01-06T04:12:42.489Z,101679.81
2023-01-06T04:15:13.443Z,101680.63
2023-01-06T04:17:43.033Z,101674.84
2023-01-06T04:20:15.812Z,101669.44
2023-01-06T04:22:45.924Z,101664.78
2023-01-06T04:25:14.656Z,101674.84
2023-01-06T04:27:44.125Z,101664.78
2023-01-06T04:30:13.681Z,101674.84
2023-01-06T04:32:42.038Z,101671.34
2023-01-06T04:35:10.977Z,101675.63
2023-01-06T04:37:39.182Z,101660.50
2023-01-06T04:40:11.015Z,101671.34
2023-01-06T04:42:57.216Z,101657.78
2023-01-06T04:45:25.513Z,101656.22
2023-01-06T04:47:53.718Z,101657.78
2023-01-06T04:50:21.974Z,101649.22
2023-01-06T04:52:50.215Z,101639.94
2023-01-06T04:55:19.963Z,101654.63
2023-01-06T04:57:48.345Z,101646.50
2023-01-06T05:00:17.727Z,101638.38
2023-01-06T05:02:46.176Z,101643.78
2023-01-06T05:05:15.123Z,101648.72
2023-01-06T05:07:43.457Z,101649.88
2023-01-06T05:10:12.797Z,101659.16
2023-01-06T05:12:42.375Z,101648.31
2023-01-06T05:15:12.642Z,101648.31
2023-01-06T05:17:41.167Z,101637.00
2023-01-06T05:20:11.043Z,101646.28
2023-01-06T05:22:39.560Z,101642.00
2023-01-06T05:25:09.064Z,101629.53
2023-01-06T05:27:37.500Z,101633.50
2023-01-06T05:30:08.999Z,101624.59
2023-01-06T05:32:37.211Z,101616.47
2023-01-06T05:35:06.110Z,101610.91
2023-01-06T05:37:35.710Z,101612.06
2023-01-06T05:40:03.983Z,101618.28
2023-01-06T05:42:32.380Z,101620.19
2023-01-06T05:45:00.603Z,101612.06
2023-01-06T05:47:30.198Z,101597.25
2023-01-06T05:49:58.374Z,101603.78
2023-01-06T05:52:26.557Z,101609.22
2023-01-06T05:54:54.731Z,101599.84
2023-01-06T05:57:23.086Z,101589.38
2023-01-06T05:59:51.315Z,101600.53
2023-01-06T06:02:19.596Z,101606.28
2023-01-06T06:04:49.237Z,101604.34
2023-01-06T06:07:17.459Z,101613.63
2023-01-06T06:09:45.690Z,101612.81
2023-01-06T06:12:14.427Z,101601.91
2023-01-06T06:14:42.627Z,101604.25
2023-01-06T06:17:10.847Z,101608.53
2023-01-06T06:19:39.088Z,101617.78
2023-01-06T06:22:10.767Z,101621.28
2023-01-06T06:24:39.176Z,101617.34
2023-01-06T06:27:07.413Z,101618.16
2023-01-06T06:29:35.645Z,101604.47
2023-01-06T06:32:03.971Z,101608.13
2023-01-06T06:34:32.179Z,101608.44
2023-01-06T06:37:00.397Z,101614.19
2023-01-06T06:39:30.191Z,101607.19
2023-01-06T06:41:58.384Z,101609.56
2023-01-06T06:44:27.225Z,101599.50
2023-01-06T06:46:55.496Z,101611.94
2023-01-06T06:49:23.674Z,101611.94
2023-01-06T06:51:52.065Z,101604.63
2023-01-06T06:54:20.325Z,101604.25
2023-01-06T06:56:49.902Z,101598.16
2023-01-06T06:59:18.123Z,101600.84
2023-01-06T07:01:46.723Z,101607.06
2023-01-06T07:04:15.215Z,101601.34
2023-01-06T07:06:43.829Z,101604.50
2023-01-06T07:09:12.048Z,101609.91
2023-01-06T07:11:40.378Z,101602.53
2023-01-06T07:14:10.278Z,101607.63
2023-01-06T07:16:38.477Z,101592.50
2023-01-06T07:19:06.667Z,101592.16
2023-01-06T07:21:34.842Z,101596.44
2023-01-06T07:24:03.127Z,101608.09
2023-01-06T07:26:31.416Z,101597.72
2023-01-06T07:28:59.955Z,101593.44
2023-01-06T07:31:29.672Z,101588.78
2023-01-06T07:33:57.959Z,101590.72
2023-01-06T07:36:26.276Z,101592.28
2023-01-06T07:38:54.464Z,101601.22
2023-01-06T07:41:22.778Z,101612.84
2023-01-06T07:43:51.258Z,101608.19
2023-01-06T07:46:19.685Z,101612.47
2023-01-06T07:48:49.375Z,101619.81
2023-01-06T07:51:17.820Z,101624.09
2023-01-06T07:53:46.277Z,101621.88
2023-01-06T07:56:14.501Z,101621.88
2023-01-06T07:58:43.123Z,101624.09
2023-01-06T08:01:12.651Z,101633.38
2023-01-06T08:03:41.266Z,101639.59
2023-01-06T08:06:12.674Z,101640.38
2023-01-06T08:08:42.690Z,101656.00
2023-01-06T08:11:14.156Z,101658.69
2023-01-06T08:13:42.597Z,101650.56
2023-01-06T08:16:12.603Z,101663.34
2023-01-06T08:18:41.359Z,101657.13
2023-01-06T08:21:12.616Z,101666.03
2023-01-06T08:23:41.228Z,101668.41
2023-01-06T08:26:13.503Z,101673.84
2023-01-06T08:28:42.147Z,101678.81
2023-01-06T08:31:11.251Z,101673.63
2023-01-06T08:33:39.754Z,101664.22
2023-01-06T08:36:13.313Z,101662.88
2023-01-06T08:38:41.616Z,101665.44
2023-01-06T08:41:10.082Z,101665.34
2023-01-06T08:43:40.845Z,101677.31
2023-01-06T08:46:12.633Z,101671.44
2023-01-06T08:48:40.923Z,101675.28
2023-01-06T08:51:14.939Z,101683.78
2023-01-06T08:53:43.923Z,101694.47
2023-01-06T08:56:17.094Z,101691.63
2023-01-06T08:58:45.529Z,101695.47
2023-01-06T09:01:18.699Z,101702.34
2023-01-06T09:03:47.203Z,101692.63
2023-01-06T09:06:17.901Z,101700.28
2023-01-06T09:08:46.699Z,101712.63
2023-01-06T09:11:15.243Z,101708.78
2023-01-06T09:13:43.798Z,101720.03
2023-01-06T09:16:15.351Z,101717.34
2023-01-06T09:18:48.335Z,101720.03
2023-01-06T09:21:19.940Z,101729.44
2023-01-06T09:23:49.137Z,101730.69
2023-01-06T09:26:18.945Z,101741.53
2023-01-06T09:28:47.736Z,101753.16
2023-01-06T09:31:18.085Z,101745.03
2023-01-06T09:33:46.418Z,101754.72
2023-01-06T09:36:14.665Z,101760.97
2023-01-06T09:38:44.348Z,101757.56
2023-01-06T09:41:58.761Z,101761.41
2023-01-06T09:44:31.592Z,101758.81
2023-01-06T09:47:02.889Z,101754.66
2023-01-06T09:49:41.267Z,101755.91
2023-01-06T09:52:18.734Z,101770.72
2023-01-06T09:54:55.613Z,101771.59
2023-01-06T09:57:30.391Z,101767.91
2023-01-06T10:00:02.418Z,101775.34
2023-01-06T10:02:37.784Z,101771.22
2023-01-06T10:05:21.790Z,101770.50
2023-01-06T10:07:58.746Z,101781.03
2023-01-06T10:10:42.922Z,101776.53
2023-01-06T10:13:29.224Z,101784.78
2023-01-06T10:16:10.395Z,101794.94
2023-01-06T10:18:44.818Z,101783.44
2023-01-06T10:21:25.210Z,101782.75
2023-01-06T10:24:11.785Z,101780.84
2023-01-06T10:26:45.235Z,101782.06
2023-01-06T10:29:17.619Z,101787.97
2023-01-06T10:31:48.639Z,101783.78
2023-01-06T10:34:23.058Z,101783.44
2023-01-06T10:37:02.618Z,101774.28
2023-01-06T10:39:32.958Z,101783.31
2023-01-06T10:42:31.580Z,101768.78
2023-01-06T10:44:59.913Z,101776.69
2023-01-06T10:47:32.918Z,101773.25
2023-01-06T10:50:01.782Z,101771.56
2023-01-06T10:52:31.526Z,101776.91
2023-01-06T10:55:05.425Z,101768.06
2023-01-06T10:57:40.888Z,101777.97
2023-01-06T11:00:13.425Z,101776.13
2023-01-06T11:02:47.112Z,101784.56
2023-01-06T11:05:17.689Z,101774.50
2023-01-06T11:07:54.844Z,101782.19
2023-01-06T11:10:31.023Z,101775.53
2023-01-06T11:13:03.754Z,101777.69
2023-01-06T11:15:41.835Z,101770.69
2023-01-06T11:18:22.404Z,101771.84
2023-01-06T11:21:10.598Z,101765.69
2023-01-06T11:23:41.308Z,101769.72
2023-01-06T11:26:19.049Z,101777.28
2023-01-06T11:28:50.820Z,101766.09
2023-01-06T11:31:22.770Z,101771.53
2023-01-06T11:33:55.173Z,101766.44
2023-01-06T11:36:25.702Z,101767.47
2023-01-06T11:38:58.754Z,101771.25
2023-01-06T11:41:32.455Z,101770.47
2023-01-06T11:44:10.445Z,101770.47
2023-01-06T11:46:42.298Z,101764.09
2023-01-06T11:49:17.182Z,101762.06
2023-01-06T11:51:50.437Z,101760.84
2023-01-06T11:54:32.593Z,101760.84
2023-01-06T11:57:04.910Z,101755.06
2023-01-06T11:59:48.152Z,101763.31
2023-01-06T12:02:25.216Z,101753.69
2023-01-06T12:04:54.887Z,101748.72
2023-01-06T12:07:32.761Z,101746.00
2023-01-06T12:10:09.911Z,101733.22
2023-01-06T12:12:38.404Z,101738.72
2023-01-06T12:15:14.518Z,101738.06
2023-01-06T12:17:50.800Z,101750.50
2023-01-06T12:20:24.666Z,101739.63
2023-01-06T12:22:57.443Z,101736.53
2023-01-06T12:25:30.906Z,101740.53
2023-01-06T12:28:04.881Z,101732.09
2023-01-06T12:30:40.540Z,101738.19
2023-01-06T12:33:15.102Z,101715.50
2023-01-06T12:35:48.419Z,101720.69
2023-01-06T12:38:33.233Z,101727.44
2023-01-06T12:41:08.877Z,101729.69
2023-01-06T12:43:42.629Z,101733.81
2023-01-06T12:46:18.201Z,101742.28
2023-01-06T12:48:51.012Z,101743.38
2023-01-06T12:51:26.713Z,101737.47
2023-01-06T12:54:01.840Z,101730.44
2023-01-06T12:56:56.909Z,101740.97
2023-01-06T12:59:36.195Z,101739.41
2023-01-06T13:02:23.001Z,101742.50
2023-01-06T13:05:41.288Z,101740.78
2023-01-06T13:08:26.994Z,101739.19
2023-01-06T13:11:09.149Z,101748.94
2023-01-06T13:13:57.386Z,101739.94
2023-01-06T13:16:34.223Z,101740.97
2023-01-06T13:19:20.330Z,101740.84
2023-01-06T13:21:51.881Z,101744.63
2023-01-06T13:24:38.850Z,101746.88
2023-01-06T13:27:42.106Z,101745.22
2023-01-06T13:30:34.932Z,101754.81
2023-01-06T13:33:22.925Z,101752.81
2023-01-06T13:36:16.437Z,101751.56
2023-01-06T13:38:58.892Z,101763.13
2023-01-06T13:41:32.595Z,101760.28
2023-01-06T13:44:02.646Z,101752.06
2023-01-06T13:46:33.732Z,101745.84
2023-01-06T13:49:04.228Z,101755.09
2023-01-06T13:51:37.430Z,101756.72
2023-01-06T13:54:05.734Z,101753.63
2023-01-06T13:56:36.313Z,101744.78
2023-01-06T13:59:25.049Z,101740.50
2023-01-06T14:02:00.114Z,101740.50
2023-01-06T14:04:58.979Z,101733.06
2023-01-06T14:07:37.345Z,101739.94
2023-01-06T14:10:18.092Z,101739.09
2023-01-06T14:12:49.830Z,101730.81
2023-01-06T14:15:27.250Z,101723.00
2023-01-06T14:17:55.723Z,101725.28
2023-01-06T14:20:32.116Z,101728.00
2023-01-06T14:23:05.460Z,101732.97
2023-01-06T14:25:40.830Z,101739.97
2023-01-06T14:28:29.106Z,101731.53
2023-01-06T14:31:51.070Z,101743.16
2023-01-06T14:34:20.517Z,101737.28
2023-01-06T14:36:52.749Z,101726.31
2023-01-06T14:39:26.381Z,101732.09
2023-01-06T14:42:01.949Z,101742.94
2023-01-06T14:44:40.982Z,101726.53
2023-01-06T14:47:17.714Z,101735.03
2023-01-06T14:49:55.887Z,101734.59
2023-01-06T14:52:33.241Z,101737.97
2023-01-06T14:55:04.859Z,101729.28
2023-01-06T14:57:36.413Z,101740.00
2023-01-06T15:00:16.192Z,101741.84
2023-01-06T15:02:47.248Z,101738.59
2023-01-06T15:05:21.484Z,101736.00
2023-01-06T15:08:01.932Z,101721.88
2023-01-06T15:10:35.397Z,101732.13
2023-01-06T15:13:04.275Z,101722.63
2023-01-06T15:18:17.515Z,101735.28
2023-01-06T15:20:57.572Z,101730.09
2023-01-06T15:23:27.686Z,101715.63
2023-01-06T15:26:02.329Z,101730.31
2023-01-06T15:28:39.118Z,101733.38
2023-01-06T15:31:16.767Z,101733.72
2023-01-06T15:33:46.423Z,101740.59
2023-01-06T15:36:22.831Z,101735.50
2023-01-06T15:38:53.724Z,101745.53
2023-01-06T15:41:37.028Z,101744.34
2023-01-06T15:44:23.612Z,101730.97
2023-01-06T15:46:54.291Z,101725.53
2023-01-06T15:49:31.252Z,101719.69
2023-01-06T15:52:05.068Z,101709.50
2023-01-06T15:54:38.411Z,101709.06
2023-01-06T15:57:17.018Z,101712.47
2023-01-06T15:59:58.894Z,101730.97
2023-01-06T16:02:32.240Z,101728.59
2023-01-06T16:05:01.220Z,101714.56
2023-01-06T16:07:40.707Z,101729.59
2023-01-06T16:10:34.016Z,101728.00
2023-01-06T16:13:27.861Z,101736.13
2023-01-06T16:16:06.189Z,101735.00
2023-01-06T16:18:38.406Z,101736.59
2023-01-06T16:21:22.698Z,101728.91
2023-01-06T16:23:54.870Z,101731.16
2023-01-06T16:26:26.202Z,101731.16
2023-01-06T16:28:58.667Z,101733.44
2023-01-06T16:31:32.851Z,101732.53
2023-01-06T16:34:26.952Z,101718.50
2023-01-06T16:36:58.711Z,101725.06
2023-01-06T16:39:29.963Z,101719.97
2023-01-06T16:42:46.179Z,101717.94
2023-01-06T16:45:33.830Z,101717.81
2023-01-06T16:48:03.434Z,101720.88
2023-01-06T16:50:41.887Z,101724.38
2023-01-06T16:53:18.382Z,101725.16
2023-01-06T16:55:52.875Z,101731.38
2023-01-06T16:58:25.435Z,101739.94
2023-01-06T17:01:00.235Z,101735.44
2023-01-06T17:03:33.833Z,101737.03
2023-01-06T17:06:03.745Z,101734.78
2023-01-06T17:08:36.223Z,101732.53
2023-01-06T17:11:16.585Z,101730.59
2023-01-06T17:13:57.569Z,101725.19
2023-01-06T17:16:33.846Z,101733.31
2023-01-06T17:19:10.623Z,101725.97
2023-01-06T17:21:41.321Z,101731.84
2023-01-06T17:24:17.015Z,101734.91
2023-01-06T17:26:51.569Z,101734.09
2023-01-06T17:29:22.145Z,101734.91
2023-01-06T17:31:54.316Z,101737.59
2023-01-06T17:34:29.403Z,101735.69
2023-01-06T17:36:58.816Z,101734.09
2023-01-06T17:39:30.330Z,101734.91
2023-01-06T17:42:08.307Z,101729.13
2023-01-06T17:44:39.745Z,101737.72
2023-01-06T17:47:14.254Z,101732.31
2023-01-06T17:49:44.832Z,101733.44
2023-01-06T17:52:18.484Z,101722.94
2023-01-06T17:55:12.987Z,101724.84
2023-01-06T17:57:46.206Z,101722.13
2023-01-06T18:00:23.713Z,101720.22
2023-01-06T18:03:00.842Z,101720.22
2023-01-06T18:06:09.558Z,101733.31
2023-01-06T18:08:39.530Z,101732.06
2023-01-06T18:11:30.518Z,101744.81
2023-01-06T18:14:03.788Z,101733.97
2023-01-06T18:16:35.286Z,101730.47
2023-01-06T18:19:26.858Z,101733.19
2023-01-06T18:21:55.938Z,101731.59
2023-01-06T18:24:30.383Z,101730.81
2023-01-06T18:27:00.722Z,101730.81
2023-01-06T18:29:36.477Z,101732.41
2023-01-06T18:32:28.725Z,101738.59
2023-01-06T18:35:00.264Z,101735.09
2023-01-06T18:37:30.747Z,101727.44
2023-01-06T18:40:02.257Z,101721.72
2023-01-06T18:42:32.812Z,101733.44
2023-01-06T18:45:19.122Z,101738.22
2023-01-06T18:47:52.409Z,101738.63
2023-01-06T18:50:36.949Z,101739.22
2023-01-06T18:53:19.807Z,101741.56
2023-01-06T18:55:51.232Z,101744.75
2023-01-06T18:58:37.437Z,101740.44
2023-01-06T19:01:19.472Z,101738.44
2023-01-06T19:04:00.643Z,101739.56
2023-01-06T19:06:40.180Z,101726.81
2023-01-06T19:09:27.436Z,101726.00
2023-01-06T19:12:17.826Z,101717.41
2023-01-06T19:14:49.663Z,101725.53
2023-01-06T19:17:24.309Z,101723.94
2023-01-06T19:19:53.407Z,101726.22
2023-01-06T19:22:27.052Z,101721.00
2023-01-06T19:25:03.361Z,101724.16
2023-01-06T19:27:40.629Z,101724.16
2023-01-06T19:30:42.907Z,101721.00
2023-01-06T19:33:34.938Z,101721.72
2023-01-06T19:36:39.181Z,101719.00
2023-01-06T19:39:30.174Z,101717.38
2023-01-06T19:42:12.902Z,101711.63
2023-01-06T19:44:41.558Z,101712.41
2023-01-06T19:47:19.829Z,101717.06
2023-01-06T19:49:53.185Z,101711.63
2023-01-06T19:52:35.253Z,101710.50
2023-01-06T19:55:20.948Z,101717.16
2023-01-06T19:57:53.022Z,101711.75
2023-01-06T20:00:29.044Z,101710.31
2023-01-06T20:03:01.734Z,101712.19
2023-01-06T20:05:31.619Z,101711.53
2023-01-06T20:07:59.947Z,101713.81
2023-01-06T20:10:29.623Z,101704.06
2023-01-06T20:12:58.001Z,101707.22
2023-01-06T20:15:26.318Z,101706.09
2023-01-06T20:17:54.628Z,101706.91
2023-01-06T20:20:22.849Z,101711.97
2023-01-06T20:22:51.104Z,101710.84
2023-01-06T20:25:19.399Z,101703.53
2023-01-06T20:27:49.013Z,101702.41
2023-01-06T20:30:17.416Z,101706.72
2023-01-06T20:32:45.701Z,101696.66
2023-01-06T20:35:15.302Z,101698.22
2023-01-06T20:37:43.703Z,101697.06
2023-01-06T20:40:12.866Z,101698.22
2023-01-06T20:42:41.645Z,101704.78
2023-01-06T20:45:13.059Z,101696.66
2023-01-06T20:47:41.854Z,101695.88
2023-01-06T20:50:13.678Z,101692.38
2023-01-06T20:52:42.249Z,101704.00
2023-01-06T20:55:10.834Z,101700.50
2023-01-06T20:57:39.360Z,101710.22
2023-01-06T21:00:12.223Z,101711.44
2023-01-06T21:02:40.512Z,101720.03
2023-01-06T21:05:10.492Z,101711.56
2023-01-06T21:07:38.711Z,101705.78
2023-01-06T21:10:08.071Z,101703.22
2023-01-06T21:12:36.317Z,101706.38
2023-01-06T21:15:05.269Z,101699.81
2023-01-06T21:17:34.866Z,101704.09
2023-01-06T21:20:03.590Z,101704.56
2023-01-06T21:22:31.813Z,101701.84
2023-01-06T21:25:00.154Z,101702.66
2023-01-06T21:27:28.417Z,101699.59
2023-01-06T21:29:56.746Z,101696.09
2023-01-06T21:32:25.025Z,101699.59
2023-01-06T21:34:54.773Z,101696.53
2023-01-06T21:37:23.145Z,101703.56
2023-01-06T21:39:51.369Z,101697.34
2023-01-06T21:42:37.151Z,101690.44
2023-01-06T21:45:07.072Z,101693.16
2023-01-06T21:47:35.363Z,101696.66
2023-01-06T21:50:06.366Z,101688.19
2023-01-06T21:52:34.463Z,101685.47
2023-01-06T21:55:03.368Z,101698.25
2023-01-06T21:57:31.739Z,101688.84
2023-01-06T21:59:59.959Z,101684.91
2023-01-06T22:02:28.354Z,101684.78
2023-01-06T22:04:56.895Z,101683.97
2023-01-06T22:07:27.543Z,101689.31
2023-01-06T22:09:56.830Z,101693.16
2023-01-06T22:12:25.434Z,101692.69
2023-01-06T22:14:56.644Z,101688.38
2023-01-06T22:17:25.385Z,101687.97
2023-01-06T22:19:54.401Z,101682.88
2023-01-06T22:22:23.088Z,101685.91
2023-01-06T22:24:55.213Z,101687.03
2023-01-06T22:27:24.408Z,101688.06
2023-01-06T22:29:52.684Z,101691.09
2023-01-06T22:32:20.962Z,101696.41
2023-01-06T22:34:49.588Z,101691.66
2023-01-06T22:37:17.850Z,101686.22
2023-01-06T22:39:46.670Z,101685.44
2023-01-06T22:42:16.285Z,101693.13
2023-01-06T22:44:44.538Z,101693.44
2023-01-06T22:47:12.720Z,101694.59
2023-01-06T22:49:41.059Z,101676.75
2023-01-06T22:52:09.315Z,101680.56
2023-01-06T22:54:37.580Z,101687.91
2023-01-06T22:57:05.800Z,101691.41
2023-01-06T22:59:35.727Z,101690.28
2023-01-06T23:02:04.194Z,101693.78
2023-01-06T23:04:32.487Z,101684.88
2023-01-06T23:07:00.700Z,101686.47
2023-01-06T23:09:29.089Z,101696.16
2023-01-06T23:11:57.508Z,101688.81
2023-01-06T23:14:25.787Z,101694.25
2023-01-06T23:16:55.562Z,101689.94
2023-01-06T23:19:23.757Z,101693.00
2023-01-06T23:21:52.179Z,101690.63
2023-01-06T23:24:20.397Z,101688.25
2023-01-06T23:26:48.725Z,101681.25
2023-01-06T23:29:17.068Z,101676.97
2023-01-06T23:31:46.957Z,101687.34
2023-01-06T23:34:19.150Z,101679.88
2023-01-06T23:36:48.557Z,101676.38
2023-01-06T23:39:17.993Z,101675.91
2023-01-06T23:41:46.279Z,101671.59
2023-01-06T23:44:16.903Z,101683.94
2023-01-06T23:46:46.829Z,101678.84
2023-01-06T23:49:18.609Z,101684.59
2023-01-06T23:51:47.103Z,101671.03
2023-01-06T23:54:15.805Z,101668.03
2023-01-06T23:56:44.092Z,101674.69
2023-01-06T23:59:13.952Z,101669.69
